Time;durP1;ratioP1;P1;durP2;ratioP2;P2;SDS_P1;SDS_P2;PMS_P1;PMS_P2;Temp;Humidity;BMP_temperature;BMP_pressure;BME280_temperature;BME280_humidity;BME280_pressure;Samples;Min_cycle;Max_cycle;Signal;HPM_P1;HPM_P2
2023/09/12 00:01:24;;;;;;;;;;;;;;;;;;5113599;28;19969;-68
2023/09/12 00:03:50;;;;;;;;;;;;;;;;;;5113862;28;19915;-68
2023/09/12 00:06:16;;;;;;;;;;;;;;;;;;5114061;28;19908;-68
2023/09/12 00:08:42;;;;;;;;;;;;;;;;;;5113235;28;19955;-68
2023/09/12 00:11:10;;;;;;;;;;;;;;;;;;5113574;28;19916;-68
2023/09/12 00:13:36;;;;;;;;;;;;;;;;;;5113292;28;19908;-68
2023/09/12 00:16:02;;;;;;;;;;;;;;;;;;5113627;28;19968;-68
2023/09/12 00:18:28;;;;;;;;;;;;;;;;;;5113544;28;20397;-68
2023/09/12 00:20:54;;;;;;;;;;;;;;;;;;5094393;28;19914;-68
2023/09/12 00:23:20;;;;;;;;;;;;;;;;;;5113056;28;19919;-68
2023/09/12 00:25:46;;;;;;;;;;;;;;;;;;5113045;28;19952;-68
2023/09/12 00:28:12;;;;;;;;;;;;;;;;;;5095022;28;20022;-68
2023/09/12 00:30:38;;;;;;;;;;;;;;;;;;5112462;28;20374;-68
2023/09/12 00:33:04;;;;;;;;;;;;;;;;;;5113328;28;19908;-69
2023/09/12 00:35:30;;;;;;;;;;;;;;;;;;5113070;28;19915;-68
2023/09/12 00:37:56;;;;;;;;;;;;;;;;;;5113274;28;19908;-69
2023/09/12 00:40:22;;;;;;;;;;;;;;;;;;5112608;28;19915;-68
2023/09/12 00:42:48;;;;;;;;;;;;;;;;;;5112798;28;20168;-69
2023/09/12 00:45:14;;;;;;;;;;;;;;;;;;5112447;28;19998;-68
2023/09/12 00:47:40;;;;;;;;;;;;;;;;;;5112884;28;20429;-69
2023/09/12 00:50:06;;;;;;;;;;;;;;;;;;5094415;28;19947;-68
2023/09/12 00:52:32;;;;;;;;;;;;;;;;;;5093642;28;20333;-68
2023/09/12 00:54:58;;;;;;;;;;;;;;;;;;5112728;28;19950;-68
2023/09/12 00:57:24;;;;;;;;;;;;;;;;;;5112695;28;19990;-68
2023/09/12 00:59:50;;;;;;;;;;;;;;;;;;5112456;28;19998;-68
2023/09/12 01:02:16;;;;;;;;;;;;;;;;;;5112507;28;19907;-68
2023/09/12 01:04:42;;;;;;;;;;;;;;;;;;5112429;28;20280;-68
2023/09/12 01:07:08;;;;;;;;;;;;;;;;;;5111759;28;19908;-69
2023/09/12 01:09:34;;;;;;;;;;;;;;;;;;5094140;28;19974;-69
2023/09/12 01:12:02;;;;;;;;;;;;;;;;;;5112488;28;20034;-69
2023/09/12 01:14:28;;;;;;;;;;;;;;;;;;5112049;28;19995;-69
2023/09/12 01:16:54;;;;;;;;;;;;;;;;;;5112451;28;20630;-68
2023/09/12 01:19:20;;;;;;;;;;;;;;;;;;5112017;28;20364;-70
2023/09/12 01:21:46;;;;;;;;;;;;;;;;;;5111802;28;19966;-68
2023/09/12 01:24:12;;;;;;;;;;;;;;;;;;5112324;28;19969;-69
2023/09/12 01:26:38;;;;;;;;;;;;;;;;;;5112196;28;19951;-69
2023/09/12 01:29:04;;;;;;;;;;;;;;;;;;5111541;28;19907;-69
2023/09/12 01:31:30;;;;;;;;;;;;;;;;;;5111937;28;19907;-69
2023/09/12 01:33:57;;;;;;;;;;;;;;;;;;5111696;28;19907;-68
2023/09/12 01:36:23;;;;;;;;;;;;;;;;;;5111856;28;20327;-68
2023/09/12 01:38:52;;;;;;;;;;;;;;;;;;5111538;28;19943;-68
2023/09/12 01:41:18;;;;;;;;;;;;;;;;;;5111368;28;19908;-69
2023/09/12 01:43:44;;;;;;;;;;;;;;;;;;5111718;28;20376;-69
2023/09/12 01:46:10;;;;;;;;;;;;;;;;;;5111192;28;20388;-69
2023/09/12 01:48:36;;;;;;;;;;;;;;;;;;5111924;28;20013;-69
2023/09/12 01:51:02;;;;;;;;;;;;;;;;;;5111229;28;19982;-69
2023/09/12 01:53:28;;;;;;;;;;;;;;;;;;5111502;28;20008;-69
2023/09/12 01:55:54;;;;;;;;;;;;;;;;;;5111821;28;19951;-69
2023/09/12 01:58:20;;;;;;;;;;;;;;;;;;5111313;28;20332;-69
2023/09/12 02:00:46;;;;;;;;;;;;;;;;;;5111470;28;19963;-69
2023/09/12 02:03:12;;;;;;;;;;;;;;;;;;5110141;28;19907;-69
2023/09/12 02:05:37;;;;;;;;;;;;;;;;;;5110976;28;19954;-69
2023/09/12 02:08:04;;;;;;;;;;;;;;;;;;5111713;28;19989;-69
2023/09/12 02:10:30;;;;;;;;;;;;;;;;;;5111100;28;19920;-69
2023/09/12 02:12:56;;;;;;;;;;;;;;;;;;5111085;28;20429;-69
2023/09/12 02:15:22;;;;;;;;;;;;;;;;;;5110284;28;20383;-69
2023/09/12 02:17:50;;;;;;;;;;;;;;;;;;5110963;28;19947;-68
2023/09/12 02:20:16;;;;;;;;;;;;;;;;;;5111217;28;19957;-68
2023/09/12 02:22:42;;;;;;;;;;;;;;;;;;5111075;28;19908;-69
2023/09/12 02:25:08;;;;;;;;;;;;;;;;;;5110589;28;19920;-69
2023/09/12 02:27:34;;;;;;;;;;;;;;;;;;5110721;28;19968;-68
2023/09/12 02:30:00;;;;;;;;;;;;;;;;;;5092274;28;19990;-68
2023/09/12 02:32:26;;;;;;;;;;;;;;;;;;5110639;28;19950;-68
2023/09/12 02:34:53;;;;;;;;;;;;;;;;;;5110250;28;19996;-68
2023/09/12 02:37:19;;;;;;;;;;;;;;;;;;5092435;28;19977;-68
2023/09/12 02:39:45;;;;;;;;;;;;;;;;;;5110395;28;19915;-68
2023/09/12 02:42:11;;;;;;;;;;;;;;;;;;5110707;28;19908;-69
2023/09/12 02:44:37;;;;;;;;;;;;;;;;;;5110348;28;19955;-69
2023/09/12 02:47:03;;;;;;;;;;;;;;;;;;5110641;28;19950;-69
2023/09/12 02:49:29;;;;;;;;;;;;;;;;;;5110231;28;20002;-69
2023/09/12 02:51:55;;;;;;;;;;;;;;;;;;5110095;28;20352;-70
2023/09/12 02:54:21;;;;;;;;;;;;;;;;;;5110334;28;19951;-69
2023/09/12 02:56:47;;;;;;;;;;;;;;;;;;5110508;28;19914;-69
2023/09/12 02:59:13;;;;;;;;;;;;;;;;;;5110230;28;20003;-69
2023/09/12 03:01:39;;;;;;;;;;;;;;;;;;5110561;28;20706;-69
2023/09/12 03:04:04;;;;;;;;;;;;;;;;;;5110368;28;19946;-69
2023/09/12 03:06:31;;;;;;;;;;;;;;;;;;5110177;28;19959;-68
2023/09/12 03:08:57;;;;;;;;;;;;;;;;;;5110080;28;19916;-68
2023/09/12 03:11:23;;;;;;;;;;;;;;;;;;5109944;28;19967;-68
2023/09/12 03:13:48;;;;;;;;;;;;;;;;;;5110025;28;19962;-68
2023/09/12 03:16:14;;;;;;;;;;;;;;;;;;5109998;28;20388;-68
2023/09/12 03:18:40;;;;;;;;;;;;;;;;;;5110357;28;20365;-69
2023/09/12 03:21:06;;;;;;;;;;;;;;;;;;5110450;28;19915;-69
2023/09/12 03:23:32;;;;;;;;;;;;;;;;;;5109438;28;19947;-68
2023/09/12 03:25:58;;;;;;;;;;;;;;;;;;5110321;28;19966;-69
2023/09/12 03:28:24;;;;;;;;;;;;;;;;;;5109620;28;19942;-68
2023/09/12 03:30:50;;;;;;;;;;;;;;;;;;5109815;28;19955;-68
2023/09/12 03:33:16;;;;;;;;;;;;;;;;;;5109982;28;20370;-68
2023/09/12 03:35:42;;;;;;;;;;;;;;;;;;5109976;28;19907;-69
2023/09/12 03:38:08;;;;;;;;;;;;;;;;;;5109431;28;19930;-69
2023/09/12 03:40:34;;;;;;;;;;;;;;;;;;5110304;28;20329;-69
2023/09/12 03:43:00;;;;;;;;;;;;;;;;;;5110436;28;20361;-69
2023/09/12 03:45:26;;;;;;;;;;;;;;;;;;5110034;28;19943;-69
2023/09/12 03:47:52;;;;;;;;;;;;;;;;;;5109473;28;19934;-70
2023/09/12 03:50:18;;;;;;;;;;;;;;;;;;5109419;28;19915;-69
2023/09/12 03:52:44;;;;;;;;;;;;;;;;;;5110271;28;20353;-67
2023/09/12 03:55:10;;;;;;;;;;;;;;;;;;5109711;28;20003;-67
2023/09/12 03:57:36;;;;;;;;;;;;;;;;;;5109222;28;19919;-68
2023/09/12 04:00:06;;;;;;;;;;;;;;;;;;5109887;28;19950;-68
2023/09/12 04:02:32;;;;;;;;;;;;;;;;;;5109344;28;19915;-68
2023/09/12 04:04:59;;;;;;;;;;;;;;;;;;5109908;28;19919;-68
2023/09/12 04:07:25;;;;;;;;;;;;;;;;;;5109671;28;20454;-67
2023/09/12 04:09:51;;;;;;;;;;;;;;;;;;5109334;28;19919;-68
2023/09/12 04:12:17;;;;;;;;;;;;;;;;;;5109453;28;20350;-68
2023/09/12 04:14:43;;;;;;;;;;;;;;;;;;5109494;28;19962;-68
2023/09/12 04:17:09;;;;;;;;;;;;;;;;;;5109473;28;19912;-67
2023/09/12 04:19:35;;;;;;;;;;;;;;;;;;5109661;28;20011;-69
2023/09/12 04:22:01;;;;;;;;;;;;;;;;;;5109018;28;20433;-69
2023/09/12 04:24:27;;;;;;;;;;;;;;;;;;5109343;28;19919;-68
2023/09/12 04:26:53;;;;;;;;;;;;;;;;;;5110866;28;19908;-69
2023/09/12 04:29:19;;;;;;;;;;;;;;;;;;5112867;28;19919;-69
2023/09/12 04:31:45;;;;;;;;;;;;;;;;;;5112650;28;19951;-68
2023/09/12 04:34:11;;;;;;;;;;;;;;;;;;5113197;28;20362;-68
2023/09/12 04:36:37;;;;;;;;;;;;;;;;;;5113270;28;20822;-69
2023/09/12 04:39:03;;;;;;;;;;;;;;;;;;5113226;28;19914;-68
2023/09/12 04:41:30;;;;;;;;;;;;;;;;;;5112768;28;19908;-67
2023/09/12 04:43:56;;;;;;;;;;;;;;;;;;5112608;28;19908;-69
2023/09/12 04:46:22;;;;;;;;;;;;;;;;;;5112183;28;19908;-68
2023/09/12 04:48:48;;;;;;;;;;;;;;;;;;5112656;28;19914;-68
2023/09/12 04:51:14;;;;;;;;;;;;;;;;;;5112463;28;20015;-69
2023/09/12 04:53:41;;;;;;;;;;;;;;;;;;5112487;28;19912;-69
2023/09/12 04:56:09;;;;;;;;;;;;;;;;;;5112924;28;20359;-69
2023/09/12 04:58:35;;;;;;;;;;;;;;;;;;5112903;28;19954;-69
2023/09/12 05:01:02;;;;;;;;;;;;;;;;;;5112407;28;20411;-69
2023/09/12 05:03:28;;;;;;;;;;;;;;;;;;5112367;28;20392;-69
2023/09/12 05:05:54;;;;;;;;;;;;;;;;;;5112415;28;20029;-69
2023/09/12 05:08:20;;;;;;;;;;;;;;;;;;5113110;28;19912;-69
2023/09/12 05:10:46;;;;;;;;;;;;;;;;;;5112240;28;20776;-69
2023/09/12 05:13:12;;;;;;;;;;;;;;;;;;5112027;28;19947;-69
2023/09/12 05:15:39;;;;;;;;;;;;;;;;;;5112470;28;19934;-69
2023/09/12 05:18:05;;;;;;;;;;;;;;;;;;5112785;28;19908;-69
2023/09/12 05:20:31;;;;;;;;;;;;;;;;;;5111528;28;19908;-69
2023/09/12 05:22:57;;;;;;;;;;;;;;;;;;5112205;28;19908;-69
2023/09/12 05:25:23;;;;;;;;;;;;;;;;;;5111796;28;19920;-69
2023/09/12 05:27:49;;;;;;;;;;;;;;;;;;5112112;28;20011;-69
2023/09/12 05:30:15;;;;;;;;;;;;;;;;;;5112009;28;19966;-69
2023/09/12 05:32:41;;;;;;;;;;;;;;;;;;5112379;28;19907;-69
2023/09/12 05:35:07;;;;;;;;;;;;;;;;;;5112372;28;20360;-69
2023/09/12 05:37:33;;;;;;;;;;;;;;;;;;5110893;28;19951;-68
2023/09/12 05:39:59;;;;;;;;;;;;;;;;;;5110795;28;19955;-69
2023/09/12 05:42:25;;;;;;;;;;;;;;;;;;5111709;28;19947;-68
2023/09/12 05:44:54;;;;;;;;;;;;;;;;;;5111763;28;19911;-68
2023/09/12 05:47:20;;;;;;;;;;;;;;;;;;5111470;28;20297;-68
2023/09/12 05:49:46;;;;;;;;;;;;;;;;;;5093370;28;20353;-70
2023/09/12 05:52:12;;;;;;;;;;;;;;;;;;5111142;28;19958;-69
2023/09/12 05:54:37;;;;;;;;;;;;;;;;;;5111407;28;19934;-69
2023/09/12 05:57:03;;;;;;;;;;;;;;;;;;5111293;28;19958;-68
2023/09/12 05:59:29;;;;;;;;;;;;;;;;;;5092761;28;20000;-69
2023/09/12 06:01:55;;;;;;;;;;;;;;;;;;5110808;28;19947;-68
2023/09/12 06:04:21;;;;;;;;;;;;;;;;;;5111078;28;19954;-68
2023/09/12 06:06:47;;;;;;;;;;;;;;;;;;5111271;28;19904;-68
2023/09/12 06:09:13;;;;;;;;;;;;;;;;;;5110815;28;19955;-69
2023/09/12 06:11:39;;;;;;;;;;;;;;;;;;5111598;28;19951;-69
2023/09/12 06:14:05;;;;;;;;;;;;;;;;;;5110790;28;19908;-69
2023/09/12 06:16:31;;;;;;;;;;;;;;;;;;5109787;28;19912;-71
2023/09/12 06:18:57;;;;;;;;;;;;;;;;;;5109257;28;19958;-69
2023/09/12 06:21:23;;;;;;;;;;;;;;;;;;5108743;28;19943;-69
2023/09/12 06:23:49;;;;;;;;;;;;;;;;;;5109021;28;19928;-69
2023/09/12 06:26:15;;;;;;;;;;;;;;;;;;5108788;28;19966;-69
2023/09/12 06:28:41;;;;;;;;;;;;;;;;;;5109200;28;20024;-69
2023/09/12 06:31:07;;;;;;;;;;;;;;;;;;5108870;28;19959;-69
2023/09/12 06:33:33;;;;;;;;;;;;;;;;;;5109027;28;19939;-68
2023/09/12 06:36:00;;;;;;;;;;;;;;;;;;5110939;28;19919;-68
2023/09/12 06:38:26;;;;;;;;;;;;;;;;;;5092278;28;19914;-69
2023/09/12 06:40:52;;;;;;;;;;;;;;;;;;5082964;28;19995;-68
2023/09/12 06:43:18;;;;;;;;;;;;;;;;;;5110593;28;20291;-69
2023/09/12 06:45:44;;;;;;;;;;;;;;;;;;5110644;28;20263;-68
2023/09/12 06:48:11;;;;;;;;;;;;;;;;;;5110666;28;19915;-69
2023/09/12 06:50:41;;;;;;;;;;;;;;;;;;5109786;28;19915;-68
2023/09/12 06:53:07;;;;;;;;;;;;;;;;;;5110053;28;19999;-68
2023/09/12 06:55:33;;;;;;;;;;;;;;;;;;5110406;28;20626;-68
2023/09/12 06:57:59;;;;;;;;;;;;;;;;;;5108608;27;19923;-68
2023/09/12 07:00:26;;;;;;;;;;;;;;;;;;5109734;28;19911;-68
2023/09/12 07:02:52;;;;;;;;;;;;;;;;;;5110288;28;20003;-68
2023/09/12 07:05:18;;;;;;;;;;;;;;;;;;5110228;28;20528;-68
2023/09/12 07:07:44;;;;;;;;;;;;;;;;;;5110070;28;19991;-68
2023/09/12 07:10:11;;;;;;;;;;;;;;;;;;5110173;28;19950;-68
2023/09/12 07:12:37;;;;;;;;;;;;;;;;;;5109932;28;20006;-68
2023/09/12 07:15:03;;;;;;;;;;;;;;;;;;5110057;28;19990;-68
2023/09/12 07:17:29;;;;;;;;;;;;;;;;;;5091600;28;19950;-69
2023/09/12 07:19:55;;;;;;;;;;;;;;;;;;5110108;28;20346;-68
2023/09/12 07:22:21;;;;;;;;;;;;;;;;;;5110318;28;20365;-68
2023/09/12 07:24:48;;;;;;;;;;;;;;;;;;5109787;28;20463;-69
2023/09/12 07:27:14;;;;;;;;;;;;;;;;;;5110214;28;19912;-68
2023/09/12 07:29:40;;;;;;;;;;;;;;;;;;5110508;28;19945;-68
2023/09/12 07:32:06;;;;;;;;;;;;;;;;;;5110001;28;20584;-68
2023/09/12 07:34:33;;;;;;;;;;;;;;;;;;5109533;28;19954;-68
2023/09/12 07:36:59;;;;;;;;;;;;;;;;;;5110116;28;20002;-69
2023/09/12 07:39:25;;;;;;;;;;;;;;;;;;5109770;28;20333;-70
2023/09/12 07:41:50;;;;;;;;;;;;;;;;;;5110134;28;19908;-70
2023/09/12 07:44:16;;;;;;;;;;;;;;;;;;5109817;28;19950;-70
2023/09/12 07:46:43;;;;;;;;;;;;;;;;;;5109315;28;19907;-70
2023/09/12 07:49:09;;;;;;;;;;;;;;;;;;5109756;28;19908;-70
2023/09/12 07:51:35;;;;;;;;;;;;;;;;;;5107290;28;19926;-69
2023/09/12 07:54:01;;;;;;;;;;;;;;;;;;5101316;28;20011;-69
2023/09/12 07:56:27;;;;;;;;;;;;;;;;;;5091250;28;19999;-70
2023/09/12 07:58:53;;;;;;;;;;;;;;;;;;5094043;28;20420;-70
2023/09/12 08:01:19;;;;;;;;;;;;;;;;;;5093043;28;19923;-70
2023/09/12 08:03:45;;;;;;;;;;;;;;;;;;5093850;28;19908;-70
2023/09/12 08:06:11;;;;;;;;;;;;;;;;;;5093118;28;20011;-68
2023/09/12 08:08:37;;;;;;;;;;;;;;;;;;5093152;28;20114;-69
2023/09/12 08:11:03;;;;;;;;;;;;;;;;;;5092983;28;19920;-69
2023/09/12 08:13:29;;;;;;;;;;;;;;;;;;5093060;28;20374;-69
2023/09/12 08:15:55;;;;;;;;;;;;;;;;;;5093170;28;20007;-69
2023/09/12 08:18:21;;;;;;;;;;;;;;;;;;5092983;28;19916;-69
2023/09/12 08:20:47;;;;;;;;;;;;;;;;;;5093329;28;19908;-69
2023/09/12 08:23:13;;;;;;;;;;;;;;;;;;5092763;28;19940;-69
2023/09/12 08:25:39;;;;;;;;;;;;;;;;;;5092464;28;19966;-69
2023/09/12 08:28:05;;;;;;;;;;;;;;;;;;5092797;28;19908;-68
2023/09/12 08:30:32;;;;;;;;;;;;;;;;;;5091821;28;20005;-69
2023/09/12 08:32:58;;;;;;;;;;;;;;;;;;5093560;28;19995;-69
2023/09/12 08:35:26;;;;;;;;;;;;;;;;;;5095965;28;19990;-70
2023/09/12 08:37:52;;;;;;;;;;;;;;;;;;5092472;28;19908;-71
2023/09/12 08:40:18;;;;;;;;;;;;;;;;;;5074761;28;19958;-69
2023/09/12 08:42:44;;;;;;;;;;;;;;;;;;5092681;28;20405;-69
2023/09/12 08:45:11;;;;;;;;;;;;;;;;;;5092360;28;20524;-69
2023/09/12 08:47:37;;;;;;;;;;;;;;;;;;5093205;28;20431;-68
2023/09/12 08:50:03;;;;;;;;;;;;;;;;;;5092158;28;19964;-70
2023/09/12 08:52:29;;;;;;;;;;;;;;;;;;5101836;28;20006;-69
2023/09/12 08:54:55;;;;;;;;;;;;;;;;;;5108488;28;20002;-69
2023/09/12 08:57:21;;;;;;;;;;;;;;;;;;5112393;28;20393;-70
2023/09/12 08:59:48;;;;;;;;;;;;;;;;;;5112646;28;20430;-71
2023/09/12 09:02:14;;;;;;;;;;;;;;;;;;5112524;28;20316;-71
2023/09/12 09:04:40;;;;;;;;;;;;;;;;;;5112029;28;19959;-70
2023/09/12 09:07:06;;;;;;;;;;;;;;;;;;5112528;28;19943;-70
2023/09/12 09:09:33;;;;;;;;;;;;;;;;;;5111620;28;19907;-70
2023/09/12 09:11:59;;;;;;;;;;;;;;;;;;5112292;28;19953;-70
2023/09/12 09:14:25;;;;;;;;;;;;;;;;;;5111018;28;19997;-71
2023/09/12 09:16:51;;;;;;;;;;;;;;;;;;5112564;28;19950;-71
2023/09/12 09:19:18;;;;;;;;;;;;;;;;;;5112430;28;19954;-71
2023/09/12 09:21:44;;;;;;;;;;;;;;;;;;5112318;28;19915;-71
2023/09/12 09:24:10;;;;;;;;;;;;;;;;;;5110430;28;20451;-71
2023/09/12 09:26:36;;;;;;;;;;;;;;;;;;5110570;28;19911;-72
2023/09/12 09:29:03;;;;;;;;;;;;;;;;;;5110185;28;19912;-72
2023/09/12 09:31:29;;;;;;;;;;;;;;;;;;5110325;28;19920;-70
2023/09/12 09:33:55;;;;;;;;;;;;;;;;;;5107434;28;20361;-71
2023/09/12 09:36:21;;;;;;;;;;;;;;;;;;5091597;28;19919;-70
2023/09/12 09:38:47;;;;;;;;;;;;;;;;;;5091440;28;19931;-71
2023/09/12 09:41:13;;;;;;;;;;;;;;;;;;5091068;28;20378;-70
2023/09/12 09:43:39;;;;;;;;;;;;;;;;;;5090933;28;19908;-71
2023/09/12 09:46:05;;;;;;;;;;;;;;;;;;5091517;28;19943;-69
2023/09/12 09:48:31;;;;;;;;;;;;;;;;;;5091250;28;19965;-72
2023/09/12 09:50:57;;;;;;;;;;;;;;;;;;5090905;28;19920;-70
2023/09/12 09:53:23;;;;;;;;;;;;;;;;;;5091057;28;19998;-69
2023/09/12 09:55:49;;;;;;;;;;;;;;;;;;5091112;28;19977;-70
2023/09/12 09:58:17;;;;;;;;;;;;;;;;;;5090901;28;19956;-70
2023/09/12 10:00:42;;;;;;;;;;;;;;;;;;5091159;28;19908;-70
2023/09/12 10:03:08;;;;;;;;;;;;;;;;;;5090448;28;19947;-69
2023/09/12 10:05:34;;;;;;;;;;;;;;;;;;5090965;28;19953;-70
2023/09/12 10:08:00;;;;;;;;;;;;;;;;;;5090942;28;19914;-71
2023/09/12 10:10:26;;;;;;;;;;;;;;;;;;5090426;28;20006;-71
2023/09/12 10:12:52;;;;;;;;;;;;;;;;;;5072707;28;19908;-71
2023/09/12 10:15:18;;;;;;;;;;;;;;;;;;5089353;28;20000;-72
2023/09/12 10:17:44;;;;;;;;;;;;;;;;;;5090342;28;19939;-71
2023/09/12 10:20:11;;;;;;;;;;;;;;;;;;5090850;28;20001;-69
2023/09/12 10:22:37;;;;;;;;;;;;;;;;;;5090385;28;19910;-69
2023/09/12 10:25:03;;;;;;;;;;;;;;;;;;5089786;28;19920;-71
2023/09/12 10:27:29;;;;;;;;;;;;;;;;;;5090647;28;19919;-71
2023/09/12 10:29:58;;;;;;;;;;;;;;;;;;5090149;28;19980;-70
2023/09/12 10:32:24;;;;;;;;;;;;;;;;;;5089905;28;19908;-68
2023/09/12 10:34:50;;;;;;;;;;;;;;;;;;5090661;28;20415;-72
2023/09/12 10:37:16;;;;;;;;;;;;;;;;;;5090466;28;20025;-71
2023/09/12 10:39:42;;;;;;;;;;;;;;;;;;5090054;28;19991;-72
2023/09/12 10:42:08;;;;;;;;;;;;;;;;;;5072078;28;19908;-71
2023/09/12 10:44:34;;;;;;;;;;;;;;;;;;5090036;28;20266;-70
2023/09/12 10:47:00;;;;;;;;;;;;;;;;;;5089702;28;20396;-71
2023/09/12 10:49:26;;;;;;;;;;;;;;;;;;5090333;28;20373;-72
2023/09/12 10:51:52;;;;;;;;;;;;;;;;;;5090157;28;19938;-72
2023/09/12 10:54:18;;;;;;;;;;;;;;;;;;5089805;28;19908;-70
2023/09/12 10:56:50;;;;;;;;;;;;;;;;;;5089933;28;19966;-71
2023/09/12 10:59:16;;;;;;;;;;;;;;;;;;5089834;28;20354;-70
2023/09/12 11:01:42;;;;;;;;;;;;;;;;;;5090109;28;20378;-68
2023/09/12 11:04:08;;;;;;;;;;;;;;;;;;5090457;28;19915;-70
2023/09/12 11:06:34;;;;;;;;;;;;;;;;;;5089269;28;19911;-73
2023/09/12 11:09:00;;;;;;;;;;;;;;;;;;5089856;28;19912;-67
2023/09/12 11:11:26;;;;;;;;;;;;;;;;;;5089696;28;19970;-71
2023/09/12 11:13:52;;;;;;;;;;;;;;;;;;5089918;28;19908;-71
2023/09/12 11:16:20;;;;;;;;;;;;;;;;;;5089769;28;19939;-70
2023/09/12 11:18:46;;;;;;;;;;;;;;;;;;5090139;28;19915;-70
2023/09/12 11:21:12;;;;;;;;;;;;;;;;;;5089622;28;20393;-69
2023/09/12 11:23:39;;;;;;;;;;;;;;;;;;5089231;28;19958;-70
2023/09/12 11:26:05;;;;;;;;;;;;;;;;;;5089928;28;20406;-71
2023/09/12 11:28:32;;;;;;;;;;;;;;;;;;5089418;28;19908;-71
2023/09/12 11:30:58;;;;;;;;;;;;;;;;;;5089459;28;19916;-71
2023/09/12 11:33:24;;;;;;;;;;;;;;;;;;5088692;28;19908;-70
2023/09/12 11:35:50;;;;;;;;;;;;;;;;;;5088810;28;19917;-71
2023/09/12 11:38:16;;;;;;;;;;;;;;;;;;5074867;28;19966;-70
2023/09/12 11:40:42;;;;;;;;;;;;;;;;;;5075413;28;19993;-69
2023/09/12 11:43:08;;;;;;;;;;;;;;;;;;5093713;28;19959;-70
2023/09/12 11:45:33;;;;;;;;;;;;;;;;;;5092669;28;19950;-71
2023/09/12 11:47:59;;;;;;;;;;;;;;;;;;5093492;28;20374;-69
2023/09/12 11:50:25;;;;;;;;;;;;;;;;;;5093281;28;19943;-70
2023/09/12 11:52:51;;;;;;;;;;;;;;;;;;5093568;28;19908;-70
2023/09/12 11:55:17;;;;;;;;;;;;;;;;;;5092880;28;20001;-70
2023/09/12 11:57:43;;;;;;;;;;;;;;;;;;5093270;28;19959;-70
2023/09/12 12:00:10;;;;;;;;;;;;;;;;;;5093166;28;19918;-70
2023/09/12 12:02:36;;;;;;;;;;;;;;;;;;5092716;28;19908;-69
2023/09/12 12:05:04;;;;;;;;;;;;;;;;;;5093449;28;20007;-70
2023/09/12 12:07:30;;;;;;;;;;;;;;;;;;5092391;28;20345;-70
2023/09/12 12:09:56;;;;;;;;;;;;;;;;;;5093478;28;19952;-70
2023/09/12 12:12:22;;;;;;;;;;;;;;;;;;5093502;28;19960;-70
2023/09/12 12:14:48;;;;;;;;;;;;;;;;;;5092976;28;19943;-70
2023/09/12 12:17:14;;;;;;;;;;;;;;;;;;5093183;28;19959;-70
2023/09/12 12:19:40;;;;;;;;;;;;;;;;;;5093208;28;19938;-69
2023/09/12 12:22:07;;;;;;;;;;;;;;;;;;5093005;28;19943;-69
2023/09/12 12:24:39;;;;;;;;;;;;;;;;;;5092445;28;19925;-68
2023/09/12 12:27:05;;;;;;;;;;;;;;;;;;5092833;28;20263;-69
2023/09/12 12:29:33;;;;;;;;;;;;;;;;;;5092387;28;19939;-70
2023/09/12 12:31:59;;;;;;;;;;;;;;;;;;5092601;28;19908;-70
2023/09/12 12:34:24;;;;;;;;;;;;;;;;;;5092409;28;19908;-70
2023/09/12 12:36:50;;;;;;;;;;;;;;;;;;5092231;28;19970;-70
2023/09/12 12:39:16;;;;;;;;;;;;;;;;;;5092194;28;19940;-69
2023/09/12 12:41:43;;;;;;;;;;;;;;;;;;5092810;28;19962;-72
2023/09/12 12:44:11;;;;;;;;;;;;;;;;;;5092558;28;20415;-71
2023/09/12 12:46:37;;;;;;;;;;;;;;;;;;5093741;28;20297;-70
2023/09/12 12:49:03;;;;;;;;;;;;;;;;;;5091823;28;19909;-70
2023/09/12 12:51:30;;;;;;;;;;;;;;;;;;5092563;28;20447;-70
2023/09/12 12:53:56;;;;;;;;;;;;;;;;;;5092527;28;20003;-71
2023/09/12 12:56:22;;;;;;;;;;;;;;;;;;5092548;28;19959;-70
2023/09/12 12:58:48;;;;;;;;;;;;;;;;;;5092841;28;19908;-69
2023/09/12 13:01:14;;;;;;;;;;;;;;;;;;5092646;28;19908;-70
2023/09/12 13:03:40;;;;;;;;;;;;;;;;;;5075159;28;19924;-70
2023/09/12 13:06:07;;;;;;;;;;;;;;;;;;5092548;28;20370;-69
2023/09/12 13:08:36;;;;;;;;;;;;;;;;;;5092305;28;20391;-68
2023/09/12 13:11:02;;;;;;;;;;;;;;;;;;5092300;28;19923;-70
2023/09/12 13:13:28;;;;;;;;;;;;;;;;;;5092819;28;19912;-69
2023/09/12 13:15:54;;;;;;;;;;;;;;;;;;5092729;28;19915;-69
2023/09/12 13:18:20;;;;;;;;;;;;;;;;;;5093009;28;19961;-69
2023/09/12 13:20:46;;;;;;;;;;;;;;;;;;5092376;28;19915;-69
2023/09/12 13:23:12;;;;;;;;;;;;;;;;;;5091790;28;19908;-70
2023/09/12 13:25:38;;;;;;;;;;;;;;;;;;5091637;28;19962;-70
2023/09/12 13:28:04;;;;;;;;;;;;;;;;;;5091688;28;19908;-70
2023/09/12 13:30:30;;;;;;;;;;;;;;;;;;5091808;28;19916;-70
2023/09/12 13:32:56;;;;;;;;;;;;;;;;;;5091460;28;19950;-70
2023/09/12 13:35:22;;;;;;;;;;;;;;;;;;5091269;28;19954;-69
2023/09/12 13:37:48;;;;;;;;;;;;;;;;;;5091513;28;19962;-69
2023/09/12 13:40:14;;;;;;;;;;;;;;;;;;5091819;28;19952;-68
2023/09/12 13:42:41;;;;;;;;;;;;;;;;;;5091277;28;19923;-68
2023/09/12 13:45:07;;;;;;;;;;;;;;;;;;5091682;28;19908;-68
2023/09/12 13:47:33;;;;;;;;;;;;;;;;;;5091220;28;19962;-70
2023/09/12 13:49:59;;;;;;;;;;;;;;;;;;5090940;28;20397;-69
2023/09/12 13:52:25;;;;;;;;;;;;;;;;;;5090853;28;20378;-70
2023/09/12 13:54:51;;;;;;;;;;;;;;;;;;5091831;28;20373;-68
2023/09/12 13:57:17;;;;;;;;;;;;;;;;;;5091686;28;19947;-69
2023/09/12 13:59:43;;;;;;;;;;;;;;;;;;5072051;28;20014;-69
2023/09/12 14:02:09;;;;;;;;;;;;;;;;;;5090640;28;20382;-69
2023/09/12 14:04:35;;;;;;;;;;;;;;;;;;5090803;28;19908;-69
2023/09/12 14:07:02;;;;;;;;;;;;;;;;;;5090656;28;20241;-68
2023/09/12 14:09:28;;;;;;;;;;;;;;;;;;5090838;28;20381;-69
2023/09/12 14:11:54;;;;;;;;;;;;;;;;;;5090735;28;19969;-69
2023/09/12 14:14:20;;;;;;;;;;;;;;;;;;5073041;28;19912;-70
2023/09/12 14:16:46;;;;;;;;;;;;;;;;;;5091042;28;20065;-70
2023/09/12 14:19:12;;;;;;;;;;;;;;;;;;5090424;28;19922;-69
2023/09/12 14:21:38;;;;;;;;;;;;;;;;;;5090467;28;19912;-69
2023/09/12 14:24:04;;;;;;;;;;;;;;;;;;5090319;28;19959;-70
2023/09/12 14:26:30;;;;;;;;;;;;;;;;;;5072077;28;20409;-70
2023/09/12 14:28:56;;;;;;;;;;;;;;;;;;5090307;28;19944;-70
2023/09/12 14:31:23;;;;;;;;;;;;;;;;;;5090337;28;19962;-71
2023/09/12 14:33:48;;;;;;;;;;;;;;;;;;5090277;28;19920;-70
2023/09/12 14:36:14;;;;;;;;;;;;;;;;;;5090199;28;19959;-70
2023/09/12 14:38:40;;;;;;;;;;;;;;;;;;5090344;28;19944;-70
2023/09/12 14:41:06;;;;;;;;;;;;;;;;;;5090401;28;19954;-70
2023/09/12 14:43:32;;;;;;;;;;;;;;;;;;5090324;28;20366;-70
2023/09/12 14:45:58;;;;;;;;;;;;;;;;;;5072143;28;20392;-70
2023/09/12 14:48:24;;;;;;;;;;;;;;;;;;5090122;28;20361;-70
2023/09/12 14:50:50;;;;;;;;;;;;;;;;;;5089481;28;19926;-69
2023/09/12 14:53:16;;;;;;;;;;;;;;;;;;5089980;28;19939;-70
2023/09/12 14:55:42;;;;;;;;;;;;;;;;;;5089954;28;19908;-70
2023/09/12 14:58:08;;;;;;;;;;;;;;;;;;5089702;28;19986;-69
2023/09/12 15:00:36;;;;;;;;;;;;;;;;;;5089892;28;20584;-70
2023/09/12 15:03:02;;;;;;;;;;;;;;;;;;5089739;28;19947;-69
2023/09/12 15:05:28;;;;;;;;;;;;;;;;;;5090102;28;19958;-69
2023/09/12 15:07:54;;;;;;;;;;;;;;;;;;5090069;28;20361;-70
2023/09/12 15:10:19;;;;;;;;;;;;;;;;;;5089622;28;19959;-69
2023/09/12 15:12:45;;;;;;;;;;;;;;;;;;5089894;28;19908;-69
2023/09/12 15:15:11;;;;;;;;;;;;;;;;;;5088965;28;20008;-70
2023/09/12 15:17:38;;;;;;;;;;;;;;;;;;5089779;28;19948;-70
2023/09/12 15:20:05;;;;;;;;;;;;;;;;;;5089786;28;19995;-70
2023/09/12 15:22:31;;;;;;;;;;;;;;;;;;5089104;28;20007;-70
2023/09/12 15:24:57;;;;;;;;;;;;;;;;;;5089667;28;20378;-69
2023/09/12 15:27:23;;;;;;;;;;;;;;;;;;5089503;28;19998;-70
2023/09/12 15:29:49;;;;;;;;;;;;;;;;;;5089496;28;20043;-70
2023/09/12 15:32:15;;;;;;;;;;;;;;;;;;5089629;28;20436;-69
2023/09/12 15:34:41;;;;;;;;;;;;;;;;;;5089265;28;19951;-70
2023/09/12 15:37:07;;;;;;;;;;;;;;;;;;5090009;28;19951;-69
2023/09/12 15:39:33;;;;;;;;;;;;;;;;;;5089248;28;20380;-69
2023/09/12 15:41:59;;;;;;;;;;;;;;;;;;5089190;28;20023;-69
2023/09/12 15:44:25;;;;;;;;;;;;;;;;;;5089425;28;19994;-70
2023/09/12 15:46:53;;;;;;;;;;;;;;;;;;5071659;28;19908;-70
2023/09/12 15:49:19;;;;;;;;;;;;;;;;;;5089213;28;20010;-70
2023/09/12 15:51:45;;;;;;;;;;;;;;;;;;5089155;28;20011;-71
2023/09/12 15:54:11;;;;;;;;;;;;;;;;;;5089235;28;19994;-70
2023/09/12 15:56:37;;;;;;;;;;;;;;;;;;5089047;28;19916;-70
2023/09/12 15:59:03;;;;;;;;;;;;;;;;;;5089307;28;19947;-71
2023/09/12 16:01:29;;;;;;;;;;;;;;;;;;5089240;28;19947;-71
2023/09/12 16:03:55;;;;;;;;;;;;;;;;;;5089223;28;19930;-70
2023/09/12 16:06:21;;;;;;;;;;;;;;;;;;5089069;28;19908;-70
2023/09/12 16:08:47;;;;;;;;;;;;;;;;;;5089388;28;19905;-70
2023/09/12 16:11:13;;;;;;;;;;;;;;;;;;5088805;28;20078;-70
2023/09/12 16:13:39;;;;;;;;;;;;;;;;;;5088996;28;21007;-70
2023/09/12 16:16:05;;;;;;;;;;;;;;;;;;5089128;28;19953;-70
2023/09/12 16:18:31;;;;;;;;;;;;;;;;;;5070982;28;19908;-69
2023/09/12 16:20:58;;;;;;;;;;;;;;;;;;5088987;28;19978;-70
2023/09/12 16:23:26;;;;;;;;;;;;;;;;;;5091347;28;20436;-70
2023/09/12 16:25:53;;;;;;;;;;;;;;;;;;5092424;28;19920;-69
2023/09/12 16:28:19;;;;;;;;;;;;;;;;;;5092561;28;19912;-69
2023/09/12 16:30:45;;;;;;;;;;;;;;;;;;5093271;28;20004;-69
2023/09/12 16:33:11;;;;;;;;;;;;;;;;;;5092821;28;19919;-70
2023/09/12 16:35:37;;;;;;;;;;;;;;;;;;5092404;28;19943;-70
2023/09/12 16:38:03;;;;;;;;;;;;;;;;;;5092145;28;20400;-69